createdAt,value
2017-05-27T00:06:59.717Z,0
2017-05-27T00:17:09.107Z,0
2017-05-27T00:27:18.491Z,0
2017-05-27T00:37:27.842Z,0
2017-05-27T00:47:37.174Z,0
2017-05-27T00:57:46.520Z,0
2017-05-27T01:07:55.866Z,0
2017-05-27T01:18:05.258Z,0
2017-05-27T01:28:14.669Z,0
2017-05-27T01:38:24.061Z,0
2017-05-27T01:48:33.506Z,0
2017-05-27T01:58:42.908Z,0
2017-05-27T02:08:52.318Z,0
2017-05-27T02:19:01.762Z,0
2017-05-27T02:29:11.255Z,0
2017-05-27T02:39:20.737Z,4
2017-05-27T02:49:30.231Z,12
2017-05-27T02:59:39.751Z,56
2017-05-27T03:09:49.280Z,192
2017-05-27T03:19:58.880Z,476
2017-05-27T03:30:08.519Z,972
2017-05-27T03:40:18.116Z,1660
2017-05-27T03:50:27.636Z,2412
2017-05-27T04:00:37.026Z,3104
2017-05-27T04:10:46.329Z,3844
2017-05-27T04:20:55.519Z,4440
2017-05-27T04:31:04.627Z,5084
2017-05-27T04:41:13.632Z,5568
2017-05-27T04:51:22.478Z,5884
2017-05-27T05:01:31.266Z,6248
2017-05-27T05:11:39.936Z,6624
2017-05-27T05:21:48.473Z,7088
2017-05-27T05:31:56.866Z,8332
2017-05-27T05:42:05.234Z,12468
2017-05-27T05:52:13.481Z,16580
2017-05-27T06:02:21.621Z,19264
2017-05-27T06:12:29.655Z,23296
2017-05-27T06:22:37.603Z,28256
2017-05-27T06:32:45.501Z,35328
2017-05-27T06:42:53.329Z,44448
2017-05-27T06:53:01.054Z,52448
2017-05-27T07:03:08.685Z,55072
2017-05-27T07:13:16.289Z,59520
2017-05-27T07:23:23.799Z,60128
2017-05-27T07:33:31.297Z,58848
2017-05-27T07:43:38.724Z,67424
2017-05-27T07:53:46.123Z,66816
2017-05-27T08:03:53.428Z,83744
2017-05-27T08:14:00.722Z,81824
2017-05-27T08:24:07.964Z,94336
2017-05-27T08:34:15.126Z,99488
2017-05-27T08:44:22.188Z,107744
2017-05-27T08:54:29.184Z,106848
2017-05-27T09:04:36.086Z,102624
2017-05-27T09:14:42.964Z,101664
2017-05-27T09:24:49.825Z,98944
2017-05-27T09:34:56.665Z,100320
2017-05-27T09:45:03.528Z,111488
2017-05-27T09:55:10.370Z,107808
2017-05-27T10:05:17.220Z,96928
2017-05-27T10:15:24.018Z,107264
2017-05-27T10:25:30.920Z,119264
2017-05-27T10:35:37.845Z,122656
2017-05-27T10:45:44.703Z,118432
2017-05-27T10:55:51.576Z,131040
2017-05-27T11:05:58.488Z,130720
2017-05-27T11:16:05.441Z,134176
2017-05-27T11:26:12.396Z,143104
2017-05-27T11:36:19.380Z,137056
2017-05-27T11:46:26.349Z,134560
2017-05-27T11:56:33.321Z,123456
2017-05-27T12:06:40.283Z,126432
2017-05-27T12:16:47.217Z,119840
2017-05-27T12:26:53.970Z,111008
2017-05-27T12:37:00.683Z,108864
2017-05-27T12:47:07.425Z,108640
2017-05-27T12:57:14.113Z,102304
2017-05-27T13:07:20.774Z,104704
2017-05-27T13:17:27.395Z,106496
2017-05-27T13:27:34.033Z,107328
2017-05-27T13:37:40.632Z,88096
2017-05-27T13:47:47.173Z,107360
2017-05-27T13:57:53.710Z,97440
2017-05-27T14:08:00.197Z,96064
2017-05-27T14:18:06.600Z,90304
2017-05-27T14:28:12.976Z,86272
2017-05-27T14:38:19.366Z,86080
2017-05-27T14:48:25.740Z,78784
2017-05-27T14:58:32.077Z,84608
2017-05-27T15:08:38.513Z,11744
2017-05-27T15:18:45.229Z,66464
2017-05-27T15:28:51.771Z,56128
2017-05-27T15:38:58.182Z,51296
2017-05-27T15:49:04.482Z,45824
2017-05-27T15:59:10.735Z,42624
2017-05-27T16:09:16.917Z,40416
2017-05-27T16:19:23.191Z,43424
2017-05-27T16:29:29.584Z,16708
2017-05-27T16:39:36.032Z,12152
2017-05-27T16:49:42.533Z,12280
2017-05-27T16:59:49.169Z,11972
2017-05-27T17:09:55.865Z,11872
2017-05-27T17:20:02.707Z,9508
2017-05-27T17:30:09.812Z,9864
2017-05-27T17:40:16.821Z,8520
2017-05-27T17:50:23.846Z,7576
2017-05-27T18:00:30.939Z,7136
2017-05-27T18:10:38.082Z,6504
2017-05-27T18:20:45.324Z,5760
2017-05-27T18:30:52.652Z,4892
2017-05-27T18:40:59.990Z,4404
2017-05-27T18:51:07.450Z,3744
2017-05-27T19:01:15.045Z,2872
2017-05-27T19:11:22.827Z,1792
2017-05-27T19:21:30.765Z,1024
2017-05-27T19:31:38.831Z,488
2017-05-27T19:41:47.039Z,192
2017-05-27T19:51:55.365Z,72
2017-05-27T20:02:03.735Z,20
2017-05-27T20:12:12.132Z,8
2017-05-27T20:22:20.553Z,0
2017-05-27T20:32:29.005Z,0
2017-05-27T20:42:37.503Z,0
2017-05-27T20:52:46.009Z,0
2017-05-27T21:02:54.538Z,0
2017-05-27T21:13:02.995Z,0
2017-05-27T21:23:11.460Z,0
2017-05-27T21:33:19.907Z,0
2017-05-27T21:53:36.959Z,0
2017-05-27T22:03:45.491Z,0
2017-05-27T22:13:54.042Z,0
2017-05-27T22:24:02.586Z,0
2017-05-27T22:34:11.211Z,0
2017-05-27T22:44:19.766Z,0
2017-05-27T22:54:28.398Z,0
2017-05-27T23:04:37.023Z,0
2017-05-27T23:14:45.676Z,0
2017-05-27T23:24:54.358Z,0
2017-05-27T23:35:03.034Z,0
2017-05-27T23:45:11.708Z,0
2017-05-27T23:55:20.480Z,0
